createdAt,value
2023-02-28T00:01:39.287Z,-1.20
2023-02-28T00:06:46.909Z,-1.40
2023-02-28T00:11:54.740Z,-1.50
2023-02-28T00:17:02.072Z,-1.40
2023-02-28T00:22:09.615Z,-1.50
2023-02-28T00:27:18.068Z,-1.50
2023-02-28T00:32:25.521Z,-1.50
2023-02-28T00:37:33.378Z,-1.40
2023-02-28T00:42:40.929Z,-1.40
2023-02-28T00:47:49.361Z,-1.30
2023-02-28T00:52:56.567Z,-1.40
2023-02-28T00:58:03.602Z,-1.50
2023-02-28T01:03:10.570Z,-1.40
2023-02-28T01:08:18.431Z,-1.40
2023-02-28T01:13:26.800Z,-1.40
2023-02-28T01:18:33.950Z,-1.40
2023-02-28T01:23:41.996Z,-1.50
2023-02-28T01:28:50.417Z,-1.50
2023-02-28T01:33:57.246Z,-1.40
2023-02-28T01:39:04.553Z,-1.40
2023-02-28T01:44:48.495Z,-1.40
2023-02-28T01:49:56.251Z,-1.30
2023-02-28T01:55:06.397Z,-1.40
2023-02-28T02:00:21.096Z,-1.40
2023-02-28T02:05:33.905Z,-1.50
2023-02-28T02:10:44.275Z,-1.40
2023-02-28T02:16:19.473Z,-1.40
2023-02-28T02:21:54.502Z,-1.50
2023-02-28T02:27:41.600Z,-1.50
2023-02-28T02:33:13.530Z,-1.40
2023-02-28T02:38:39.489Z,-1.50
2023-02-28T02:44:02.575Z,-1.40
2023-02-28T02:49:13.419Z,-1.40
2023-02-28T02:54:23.751Z,-1.40
2023-02-28T02:59:32.262Z,-1.50
2023-02-28T03:04:55.130Z,-1.20
2023-02-28T03:10:02.706Z,-1.40
2023-02-28T03:15:29.021Z,-1.20
2023-02-28T03:20:49.272Z,-1.30
2023-02-28T03:26:03.498Z,-1.30
2023-02-28T03:31:26.852Z,-1.30
2023-02-28T03:36:46.792Z,-1.30
2023-02-28T03:42:09.662Z,-1.20
2023-02-28T03:47:32.346Z,-1.30
2023-02-28T03:52:43.545Z,-1.30
2023-02-28T03:58:14.172Z,-1.30
2023-02-28T04:03:21.686Z,-1.20
2023-02-28T04:08:28.713Z,-1.20
2023-02-28T04:13:35.795Z,-1.20
2023-02-28T04:18:45.302Z,-1.30
2023-02-28T04:23:52.301Z,-1.20
2023-02-28T04:28:59.846Z,-1.20
2023-02-28T04:34:06.632Z,-1.20
2023-02-28T04:39:13.328Z,-1.30
2023-02-28T04:44:20.154Z,-1.20
2023-02-28T04:49:27.045Z,-1.20
2023-02-28T04:54:34.263Z,-1.10
2023-02-28T04:59:41.249Z,-1.20
2023-02-28T05:04:48.093Z,-1.20
2023-02-28T05:09:55.044Z,-1.20
2023-02-28T05:15:03.296Z,-1.20
2023-02-28T05:20:15.627Z,-1.10
2023-02-28T05:25:24.453Z,-1.20
2023-02-28T05:30:32.862Z,-1.20
2023-02-28T05:35:42.525Z,-1.30
2023-02-28T05:40:49.710Z,-1.30
2023-02-28T05:45:56.707Z,-1.10
2023-02-28T05:51:05.297Z,-1.20
2023-02-28T05:56:12.315Z,-1.20
2023-02-28T06:01:45.465Z,-1.10
2023-02-28T06:06:53.525Z,-1.10
2023-02-28T06:12:06.829Z,-1.00
2023-02-28T06:17:14.171Z,-1.00
2023-02-28T06:22:20.857Z,-1.10
2023-02-28T06:27:28.472Z,-1.00
2023-02-28T06:32:36.197Z,-1.00
2023-02-28T06:37:44.557Z,-1.10
2023-02-28T06:42:51.512Z,-1.00
2023-02-28T06:47:59.717Z,-1.20
2023-02-28T06:53:06.720Z,-1.10
2023-02-28T06:58:16.686Z,-1.10
2023-02-28T07:03:25.526Z,-1.10
2023-02-28T07:08:33.252Z,-1.10
2023-02-28T07:13:40.668Z,-1.20
2023-02-28T07:18:47.824Z,-1.10
2023-02-28T07:23:55.108Z,-1.00
2023-02-28T07:29:02.441Z,-1.00
2023-02-28T07:34:09.432Z,-1.00
2023-02-28T07:39:16.299Z,-1.00
2023-02-28T07:44:23.199Z,-1.10
2023-02-28T07:49:30.275Z,-0.90
2023-02-28T07:54:37.680Z,-1.00
2023-02-28T07:59:46.181Z,-0.80
2023-02-28T08:04:53.712Z,-0.90
2023-02-28T08:10:01.033Z,-0.80
2023-02-28T08:15:09.331Z,-0.80
2023-02-28T08:20:16.185Z,-0.70
2023-02-28T08:25:24.222Z,-0.60
2023-02-28T08:30:31.420Z,-0.60
2023-02-28T08:35:39.771Z,-0.70
2023-02-28T08:40:48.018Z,-0.70
2023-02-28T08:45:59.478Z,-0.70
2023-02-28T08:51:11.233Z,-0.50
2023-02-28T08:56:20.304Z,-0.60
2023-02-28T09:01:31.423Z,-0.50
2023-02-28T09:06:38.950Z,-0.40
2023-02-28T09:11:46.262Z,-0.50
2023-02-28T09:16:53.359Z,-0.50
2023-02-28T09:22:00.613Z,-0.60
2023-02-28T09:27:08.556Z,-0.50
2023-02-28T09:32:16.828Z,-0.30
2023-02-28T09:37:24.662Z,-0.20
2023-02-28T09:42:38.099Z,-0.30
2023-02-28T09:47:47.883Z,-0.20
2023-02-28T09:52:57.205Z,-0.20
2023-02-28T09:58:05.301Z,-0.40
2023-02-28T10:03:43.106Z,0.00
2023-02-28T10:09:25.461Z,-0.10
2023-02-28T10:14:36.306Z,-0.20
2023-02-28T10:19:47.741Z,0.10
2023-02-28T10:24:57.942Z,0.00
2023-02-28T10:30:07.992Z,0.40
2023-02-28T10:35:22.252Z,0.10
2023-02-28T10:40:34.100Z,0.30
2023-02-28T10:45:41.345Z,0.20
2023-02-28T10:50:56.066Z,0.40
2023-02-28T10:56:13.805Z,0.40
2023-02-28T11:01:25.480Z,0.80
2023-02-28T11:06:37.743Z,0.60
2023-02-28T11:11:50.074Z,0.90
2023-02-28T11:17:00.633Z,0.90
2023-02-28T11:22:09.737Z,1.10
2023-02-28T11:27:35.389Z,1.20
2023-02-28T11:32:48.022Z,1.40
2023-02-28T11:37:57.728Z,1.80
2023-02-28T11:43:14.850Z,1.70
2023-02-28T11:48:29.738Z,1.70
2023-02-28T11:54:01.833Z,1.80
2023-02-28T11:59:31.199Z,1.50
2023-02-28T12:04:51.215Z,1.60
2023-02-28T12:10:09.747Z,1.80
2023-02-28T12:15:50.947Z,2.10
2023-02-28T12:21:35.679Z,2.20
2023-02-28T12:26:54.382Z,2.00
2023-02-28T12:32:06.641Z,2.00
2023-02-28T12:37:21.897Z,1.90
2023-02-28T12:42:37.995Z,2.00
2023-02-28T12:47:55.684Z,1.70
2023-02-28T12:53:15.946Z,1.90
2023-02-28T12:58:44.900Z,1.90
2023-02-28T13:04:35.421Z,2.20
2023-02-28T13:09:43.372Z,2.20
2023-02-28T13:14:51.647Z,2.00
2023-02-28T13:20:02.208Z,2.40
2023-02-28T13:25:29.042Z,2.10
2023-02-28T13:30:57.170Z,2.20
2023-02-28T13:36:19.269Z,1.90
2023-02-28T13:41:40.341Z,2.10
2023-02-28T13:47:01.805Z,2.00
2023-02-28T13:52:21.909Z,2.20
2023-02-28T13:57:48.065Z,1.90
2023-02-28T14:03:17.102Z,1.80
2023-02-28T14:08:26.286Z,1.70
2023-02-28T14:13:49.464Z,1.90
2023-02-28T14:19:06.629Z,1.80
2023-02-28T14:24:28.781Z,1.90
2023-02-28T14:29:51.995Z,1.80
2023-02-28T14:35:49.702Z,1.70
2023-02-28T14:40:59.946Z,1.70
2023-02-28T14:46:09.446Z,1.70
2023-02-28T14:51:23.245Z,1.70
2023-02-28T14:56:37.782Z,1.60
2023-02-28T15:01:45.303Z,1.90
2023-02-28T15:07:13.900Z,1.80
2023-02-28T15:12:21.117Z,1.70
2023-02-28T15:17:29.082Z,1.70
2023-02-28T15:22:38.794Z,1.50
2023-02-28T15:27:52.512Z,1.50
2023-02-28T15:33:15.592Z,1.50
2023-02-28T15:38:29.381Z,1.50
2023-02-28T15:43:36.840Z,1.30
2023-02-28T15:48:59.895Z,1.40
2023-02-28T15:54:17.630Z,1.50
2023-02-28T15:59:33.122Z,1.40
2023-02-28T16:04:42.799Z,1.50
2023-02-28T16:09:49.731Z,1.50
2023-02-28T16:14:59.882Z,1.40
2023-02-28T16:20:26.071Z,1.20
2023-02-28T16:25:36.791Z,1.30
2023-02-28T16:30:43.873Z,1.40
2023-02-28T16:35:51.308Z,1.40
2023-02-28T16:41:01.788Z,1.30
2023-02-28T16:46:10.319Z,1.10
2023-02-28T16:51:20.242Z,1.10
2023-02-28T16:56:28.617Z,1.10
2023-02-28T17:01:35.853Z,1.10
2023-02-28T17:06:42.758Z,1.10
2023-02-28T17:11:49.965Z,1.00
2023-02-28T17:16:56.733Z,1.00
2023-02-28T17:22:04.394Z,1.00
2023-02-28T17:27:14.794Z,1.00
2023-02-28T17:32:21.785Z,1.00
2023-02-28T17:37:28.879Z,1.00
2023-02-28T17:42:35.854Z,1.00
2023-02-28T17:47:44.555Z,1.00
2023-02-28T17:52:52.231Z,1.00
2023-02-28T17:57:59.090Z,1.00
2023-02-28T18:03:05.889Z,1.10
2023-02-28T18:08:15.631Z,0.90
2023-02-28T18:13:22.772Z,1.10
2023-02-28T18:18:29.530Z,1.00
2023-02-28T18:23:36.607Z,0.80
2023-02-28T18:28:44.799Z,0.90
2023-02-28T18:33:53.292Z,0.80
2023-02-28T18:39:06.402Z,0.90
2023-02-28T18:44:18.993Z,0.90
2023-02-28T18:49:18.680Z,0.90
2023-02-28T18:54:25.366Z,0.90
2023-02-28T18:59:32.220Z,0.90
2023-02-28T19:04:39.281Z,0.90
2023-02-28T19:09:46.152Z,1.00
2023-02-28T19:14:53.688Z,0.90
2023-02-28T19:20:01.011Z,0.80
2023-02-28T19:25:09.323Z,0.70
2023-02-28T19:30:16.555Z,0.80
2023-02-28T19:35:23.485Z,0.70
2023-02-28T19:40:30.266Z,0.70
2023-02-28T19:45:39.544Z,0.70
2023-02-28T19:50:46.513Z,0.60
2023-02-28T19:55:54.118Z,0.70
2023-02-28T20:01:10.217Z,0.60
2023-02-28T20:06:17.412Z,0.60
2023-02-28T20:11:24.335Z,0.60
2023-02-28T20:16:31.824Z,0.70
2023-02-28T20:21:38.703Z,0.60
2023-02-28T20:26:45.459Z,0.60
2023-02-28T20:31:52.858Z,0.60
2023-02-28T20:37:02.050Z,0.70
2023-02-28T20:42:09.366Z,0.80
2023-02-28T20:47:16.223Z,0.80
2023-02-28T20:52:23.207Z,0.70
2023-02-28T20:57:31.859Z,0.70
2023-02-28T21:02:39.468Z,0.60
2023-02-28T21:07:46.895Z,0.60
2023-02-28T21:12:55.410Z,0.50
2023-02-28T21:18:02.263Z,0.60
2023-02-28T21:23:09.108Z,0.50
2023-02-28T21:28:15.931Z,0.40
2023-02-28T21:33:22.840Z,0.60
2023-02-28T21:38:29.565Z,0.70
2023-02-28T21:43:37.229Z,0.60
2023-02-28T21:48:45.361Z,0.60
2023-02-28T21:53:53.355Z,0.60
2023-02-28T21:59:01.521Z,0.50
2023-02-28T22:04:11.921Z,0.60
2023-02-28T22:09:19.072Z,0.70
2023-02-28T22:14:26.914Z,0.60
2023-02-28T22:19:33.901Z,0.60
2023-02-28T22:24:41.360Z,0.60
2023-02-28T22:29:48.827Z,0.60
2023-02-28T22:34:55.991Z,0.50
2023-02-28T22:40:03.054Z,0.50
2023-02-28T22:45:11.142Z,0.50
2023-02-28T22:50:17.989Z,0.60
2023-02-28T22:55:25.173Z,0.50
2023-02-28T23:00:32.063Z,0.50
2023-02-28T23:06:29.015Z,0.50
2023-02-28T23:11:42.557Z,0.40
2023-02-28T23:16:56.396Z,0.70
2023-02-28T23:22:05.810Z,0.70
2023-02-28T23:27:12.928Z,0.70
2023-02-28T23:32:20.025Z,0.70
2023-02-28T23:37:27.345Z,0.60
2023-02-28T23:42:34.626Z,0.60
2023-02-28T23:47:42.012Z,0.70
2023-02-28T23:52:48.788Z,0.70
2023-02-28T23:57:55.710Z,0.70
